createdAt,value
2023-03-16T00:00:23.242Z,4.43
2023-03-16T00:02:50.551Z,4.57
2023-03-16T00:05:18.363Z,4.72
2023-03-16T00:07:49.143Z,4.57
2023-03-16T00:10:16.898Z,5.65
2023-03-16T00:12:45.323Z,5.10
2023-03-16T00:15:13.520Z,5.80
2023-03-16T00:17:40.872Z,5.63
2023-03-16T00:20:09.110Z,5.60
2023-03-16T00:22:36.861Z,5.00
2023-03-16T00:25:04.641Z,5.50
2023-03-16T00:27:31.961Z,5.25
2023-03-16T00:29:59.317Z,5.88
2023-03-16T00:32:29.517Z,5.78
2023-03-16T00:34:57.422Z,6.43
2023-03-16T00:37:26.336Z,6.55
2023-03-16T00:39:56.430Z,5.38
2023-03-16T00:42:27.694Z,5.25
2023-03-16T00:44:58.803Z,5.90
2023-03-16T00:47:29.176Z,6.15
2023-03-16T00:49:57.350Z,5.85
2023-03-16T00:52:27.806Z,5.38
2023-03-16T00:54:56.162Z,6.35
2023-03-16T00:57:30.412Z,6.53
2023-03-16T01:00:01.705Z,5.75
2023-03-16T01:02:29.444Z,5.57
2023-03-16T01:04:56.750Z,6.38
2023-03-16T01:07:26.120Z,5.97
2023-03-16T01:09:53.485Z,6.63
2023-03-16T01:12:21.049Z,6.00
2023-03-16T01:14:48.716Z,7.22
2023-03-16T01:17:19.062Z,6.40
2023-03-16T01:19:46.759Z,6.93
2023-03-16T01:22:15.015Z,6.50
2023-03-16T01:24:45.238Z,6.18
2023-03-16T01:27:14.434Z,6.90
2023-03-16T01:29:43.917Z,6.57
2023-03-16T01:32:12.629Z,6.47
2023-03-16T01:34:40.430Z,5.95
2023-03-16T01:37:08.420Z,6.50
2023-03-16T01:39:52.433Z,7.18
2023-03-16T01:42:19.771Z,6.55
2023-03-16T01:45:02.190Z,5.90
2023-03-16T01:47:38.445Z,6.00
2023-03-16T01:50:08.579Z,5.10
2023-03-16T01:52:39.649Z,6.57
2023-03-16T01:55:09.317Z,6.75
2023-03-16T01:57:42.832Z,6.00
2023-03-16T02:00:19.865Z,6.53
2023-03-16T02:03:18.433Z,5.47
2023-03-16T02:06:11.198Z,6.22
2023-03-16T02:08:45.472Z,6.43
2023-03-16T02:11:18.003Z,6.75
2023-03-16T02:14:00.868Z,6.10
2023-03-16T02:16:28.241Z,6.05
2023-03-16T02:18:55.689Z,5.78
2023-03-16T02:21:38.090Z,6.65
2023-03-16T02:24:05.650Z,5.43
2023-03-16T02:26:51.538Z,6.40
2023-03-16T02:29:48.401Z,5.90
2023-03-16T02:32:17.338Z,6.82
2023-03-16T02:34:44.762Z,5.85
2023-03-16T02:37:13.767Z,6.43
2023-03-16T02:39:45.661Z,6.20
2023-03-16T02:42:19.702Z,5.93
2023-03-16T02:44:52.297Z,6.28
2023-03-16T02:47:43.687Z,6.25
2023-03-16T02:50:13.417Z,6.15
2023-03-16T02:52:41.981Z,6.07
2023-03-16T02:55:09.671Z,6.10
2023-03-16T02:57:37.004Z,6.38
2023-03-16T03:00:20.369Z,6.57
2023-03-16T03:02:52.479Z,7.38
2023-03-16T03:05:25.188Z,6.60
2023-03-16T03:07:53.147Z,6.55
2023-03-16T03:10:22.426Z,7.18
2023-03-16T03:12:52.041Z,6.50
2023-03-16T03:15:20.316Z,6.10
2023-03-16T03:18:03.061Z,6.72
2023-03-16T03:20:32.135Z,7.32
2023-03-16T03:23:00.901Z,6.35
2023-03-16T03:25:30.449Z,6.15
2023-03-16T03:27:58.854Z,6.55
2023-03-16T03:30:27.890Z,6.35
2023-03-16T03:32:55.439Z,6.38
2023-03-16T03:35:23.038Z,5.78
2023-03-16T03:37:51.049Z,6.40
2023-03-16T03:40:20.348Z,6.65
2023-03-16T03:42:51.892Z,7.57
2023-03-16T03:45:19.945Z,6.47
2023-03-16T03:47:47.730Z,7.55
2023-03-16T03:50:19.958Z,6.82
2023-03-16T03:53:20.880Z,8.60
2023-03-16T03:56:16.782Z,7.15
2023-03-16T03:58:44.106Z,7.22
2023-03-16T04:01:14.303Z,7.88
2023-03-16T04:03:44.824Z,7.65
2023-03-16T04:06:15.113Z,6.65
2023-03-16T04:08:42.649Z,6.95
2023-03-16T04:11:12.775Z,6.60
2023-03-16T04:13:41.183Z,7.07
2023-03-16T04:16:09.623Z,7.28
2023-03-16T04:18:45.327Z,7.72
2023-03-16T04:21:17.999Z,7.57
2023-03-16T04:23:48.418Z,8.02
2023-03-16T04:26:18.443Z,7.43
2023-03-16T04:28:48.679Z,7.10
2023-03-16T04:31:18.827Z,7.65
2023-03-16T04:33:47.761Z,7.60
2023-03-16T04:36:15.346Z,8.30
2023-03-16T04:38:44.027Z,8.40
2023-03-16T04:41:12.466Z,7.30
2023-03-16T04:43:47.451Z,7.90
2023-03-16T04:46:20.185Z,9.43
2023-03-16T04:48:47.568Z,7.75
2023-03-16T04:51:15.265Z,8.68
2023-03-16T04:53:51.439Z,8.18
2023-03-16T04:56:28.123Z,7.82
2023-03-16T04:59:00.419Z,8.38
2023-03-16T05:01:33.384Z,10.05
2023-03-16T05:04:03.426Z,8.23
2023-03-16T05:06:33.978Z,9.45
2023-03-16T05:09:09.595Z,9.20
2023-03-16T05:11:40.633Z,8.88
2023-03-16T05:14:10.966Z,10.60
2023-03-16T05:16:53.009Z,8.10
2023-03-16T05:19:23.459Z,9.68
2023-03-16T05:21:50.920Z,8.65
2023-03-16T05:24:18.848Z,8.43
2023-03-16T05:26:49.007Z,9.25
2023-03-16T05:29:18.420Z,9.40
2023-03-16T05:31:47.722Z,8.80
2023-03-16T05:34:17.803Z,8.55
2023-03-16T05:36:45.400Z,9.35
2023-03-16T05:39:16.314Z,10.48
2023-03-16T05:41:47.631Z,8.82
2023-03-16T05:44:17.785Z,9.50
2023-03-16T05:47:04.517Z,8.68
2023-03-16T05:49:34.222Z,8.70
2023-03-16T05:52:05.116Z,8.75
2023-03-16T05:54:35.288Z,8.57
2023-03-16T05:57:03.014Z,9.52
2023-03-16T05:59:30.665Z,9.98
2023-03-16T06:01:58.817Z,9.10
2023-03-16T06:04:26.977Z,8.98
2023-03-16T06:06:54.443Z,10.48
2023-03-16T06:09:25.180Z,8.13
2023-03-16T06:11:52.540Z,8.43
2023-03-16T06:14:21.301Z,8.50
2023-03-16T06:16:50.702Z,8.50
2023-03-16T06:19:18.144Z,7.80
2023-03-16T06:21:48.095Z,9.07
2023-03-16T06:24:15.451Z,9.40
2023-03-16T06:26:42.780Z,9.90
2023-03-16T06:29:13.250Z,10.20
2023-03-16T06:31:42.431Z,10.65
2023-03-16T06:34:11.577Z,11.25
2023-03-16T06:36:39.808Z,10.23
2023-03-16T06:39:11.571Z,10.82
2023-03-16T06:41:43.845Z,10.18
2023-03-16T06:44:13.919Z,12.43
2023-03-16T06:46:51.821Z,11.35
2023-03-16T06:49:19.213Z,11.75
2023-03-16T06:51:46.628Z,12.95
2023-03-16T06:54:15.150Z,11.32
2023-03-16T06:56:45.911Z,13.27
2023-03-16T06:59:14.122Z,12.02
2023-03-16T07:01:42.306Z,11.57
2023-03-16T07:04:09.867Z,10.20
2023-03-16T07:06:37.630Z,11.90
2023-03-16T07:09:05.553Z,10.80
2023-03-16T07:11:33.650Z,11.63
2023-03-16T07:14:01.669Z,11.23
2023-03-16T07:16:32.019Z,9.95
2023-03-16T07:19:02.414Z,11.07
2023-03-16T07:21:29.774Z,8.88
2023-03-16T07:23:57.467Z,10.30
2023-03-16T07:26:29.692Z,10.00
2023-03-16T07:29:00.163Z,9.73
2023-03-16T07:31:27.767Z,9.57
2023-03-16T07:33:57.495Z,8.57
2023-03-16T07:36:36.551Z,8.88
2023-03-16T07:39:06.205Z,9.05
2023-03-16T07:41:35.156Z,8.48
2023-03-16T07:44:15.658Z,8.38
2023-03-16T07:46:47.466Z,8.18
2023-03-16T07:49:16.703Z,8.15
2023-03-16T07:51:45.736Z,7.28
2023-03-16T07:54:14.016Z,7.15
2023-03-16T07:56:48.806Z,8.30
2023-03-16T07:59:32.050Z,7.97
2023-03-16T08:02:01.741Z,7.22
2023-03-16T08:04:36.736Z,7.55
2023-03-16T08:07:05.743Z,8.40
2023-03-16T08:09:47.317Z,7.45
2023-03-16T08:12:20.511Z,7.13
2023-03-16T08:14:48.121Z,6.38
2023-03-16T08:19:50.823Z,6.22
2023-03-16T08:22:21.188Z,5.93
2023-03-16T08:24:51.971Z,5.78
2023-03-16T08:27:20.426Z,6.22
2023-03-16T08:29:54.543Z,5.65
2023-03-16T08:32:25.505Z,6.05
2023-03-16T08:34:53.879Z,5.68
2023-03-16T08:37:22.093Z,6.85
2023-03-16T08:39:51.495Z,5.65
2023-03-16T08:42:20.336Z,4.55
2023-03-16T08:44:55.198Z,4.88
2023-03-16T08:47:24.329Z,5.00
2023-03-16T08:49:52.253Z,5.47
2023-03-16T08:52:19.901Z,5.43
2023-03-16T08:55:02.032Z,4.72
2023-03-16T08:57:30.846Z,4.95
2023-03-16T08:59:58.672Z,4.15
2023-03-16T09:02:26.051Z,4.40
2023-03-16T09:04:53.624Z,4.35
2023-03-16T09:07:20.940Z,4.03
2023-03-16T09:09:49.062Z,3.88
2023-03-16T09:12:16.963Z,3.30
2023-03-16T09:14:46.213Z,2.35
2023-03-16T09:17:14.031Z,3.13
2023-03-16T09:19:51.062Z,2.83
2023-03-16T09:22:20.728Z,2.90
2023-03-16T09:24:49.655Z,1.27
2023-03-16T09:27:17.742Z,2.30
2023-03-16T09:29:45.485Z,1.77
2023-03-16T09:32:14.306Z,1.70
2023-03-16T09:34:42.238Z,1.75
2023-03-16T09:37:11.332Z,1.35
2023-03-16T09:39:39.583Z,1.98
2023-03-16T09:42:36.717Z,1.80
2023-03-16T09:45:05.440Z,1.63
2023-03-16T09:47:36.080Z,1.63
2023-03-16T09:50:16.176Z,1.40
2023-03-16T09:52:55.828Z,1.80
2023-03-16T09:55:53.639Z,1.60
2023-03-16T09:58:41.065Z,1.65
2023-03-16T10:02:04.660Z,1.55
2023-03-16T10:05:11.476Z,1.73
2023-03-16T10:08:16.723Z,1.63
2023-03-16T10:11:08.842Z,2.00
2023-03-16T10:13:54.035Z,2.38
2023-03-16T10:16:30.836Z,2.13
2023-03-16T10:19:21.117Z,1.48
2023-03-16T10:21:50.503Z,1.60
2023-03-16T10:24:43.574Z,1.40
2023-03-16T10:27:38.771Z,2.22
2023-03-16T10:30:18.793Z,1.80
2023-03-16T10:32:47.088Z,1.55
2023-03-16T10:35:42.395Z,1.45
2023-03-16T10:38:26.649Z,1.25
2023-03-16T10:41:02.182Z,2.05
2023-03-16T10:43:32.168Z,1.23
2023-03-16T10:46:02.134Z,1.33
2023-03-16T10:48:34.824Z,1.13
2023-03-16T10:51:12.000Z,1.63
2023-03-16T10:53:43.785Z,1.45
2023-03-16T10:56:22.777Z,1.65
2023-03-16T10:58:50.436Z,1.33
2023-03-16T11:01:27.140Z,1.50
2023-03-16T11:03:57.138Z,1.75
2023-03-16T11:06:30.522Z,1.45
2023-03-16T11:09:14.372Z,1.45
2023-03-16T11:11:49.348Z,1.42
2023-03-16T11:14:25.909Z,1.20
2023-03-16T11:17:17.989Z,2.17
2023-03-16T11:19:50.201Z,2.20
2023-03-16T11:22:27.887Z,1.30
2023-03-16T11:25:11.893Z,1.58
2023-03-16T11:28:12.004Z,1.45
2023-03-16T11:31:12.814Z,1.48
2023-03-16T11:33:40.219Z,1.25
2023-03-16T11:36:10.828Z,1.20
2023-03-16T11:38:55.110Z,1.02
2023-03-16T11:41:48.327Z,1.02
2023-03-16T11:44:44.531Z,1.10
2023-03-16T11:47:24.168Z,1.00
2023-03-16T11:50:15.583Z,1.20
2023-03-16T11:53:22.686Z,1.00
2023-03-16T11:56:12.338Z,1.73
2023-03-16T11:59:02.261Z,1.30
2023-03-16T12:01:54.331Z,1.65
2023-03-16T12:04:28.152Z,1.38
2023-03-16T12:07:09.399Z,1.85
2023-03-16T12:09:58.618Z,0.85
2023-03-16T12:12:51.509Z,1.17
2023-03-16T12:15:42.469Z,1.15
2023-03-16T12:18:23.371Z,0.95
2023-03-16T12:21:09.382Z,1.13
2023-03-16T12:23:58.540Z,1.10
2023-03-16T12:26:37.876Z,0.85
2023-03-16T12:29:35.287Z,1.45
2023-03-16T12:32:25.980Z,1.02
2023-03-16T12:35:05.542Z,1.40
2023-03-16T12:37:42.137Z,1.17
2023-03-16T12:40:28.344Z,1.20
2023-03-16T12:43:24.495Z,0.95
2023-03-16T12:46:01.589Z,1.10
2023-03-16T12:48:42.161Z,1.55
2023-03-16T12:51:10.705Z,1.10
2023-03-16T12:53:52.316Z,1.05
2023-03-16T12:56:50.361Z,1.23
2023-03-16T12:59:25.154Z,1.55
2023-03-16T13:01:58.568Z,1.52
2023-03-16T13:04:35.349Z,1.10
2023-03-16T13:07:11.951Z,1.35
2023-03-16T13:09:48.314Z,1.08
2023-03-16T13:12:26.169Z,1.38
2023-03-16T13:14:54.993Z,1.40
2023-03-16T13:17:31.745Z,1.60
2023-03-16T13:20:29.298Z,1.10
2023-03-16T13:23:24.092Z,1.70
2023-03-16T13:26:13.344Z,1.38
2023-03-16T13:28:42.270Z,1.60
2023-03-16T13:31:44.674Z,1.92
2023-03-16T13:34:26.960Z,1.30
2023-03-16T13:36:57.159Z,1.30
2023-03-16T13:39:27.455Z,1.67
2023-03-16T13:41:59.580Z,1.40
2023-03-16T13:44:28.388Z,1.63
2023-03-16T13:46:56.221Z,1.75
2023-03-16T13:49:24.091Z,1.70
2023-03-16T13:51:52.570Z,1.50
2023-03-16T13:54:27.933Z,1.55
2023-03-16T13:57:36.308Z,1.27
2023-03-16T14:00:20.307Z,2.00
2023-03-16T14:02:57.132Z,1.52
2023-03-16T14:05:30.579Z,1.67
2023-03-16T14:08:00.898Z,1.48
2023-03-16T14:10:36.587Z,1.73
2023-03-16T14:13:32.525Z,1.95
2023-03-16T14:16:17.570Z,2.03
2023-03-16T14:18:48.609Z,1.83
2023-03-16T14:21:23.593Z,1.67
2023-03-16T14:23:59.674Z,1.83
2023-03-16T14:26:41.674Z,1.85
2023-03-16T14:29:26.569Z,1.65
2023-03-16T14:32:05.992Z,1.60
2023-03-16T14:34:42.237Z,1.98
2023-03-16T14:37:12.568Z,1.98
2023-03-16T14:39:40.687Z,2.08
2023-03-16T14:42:17.805Z,1.67
2023-03-16T14:44:45.529Z,1.70
2023-03-16T14:47:26.343Z,1.67
2023-03-16T14:49:54.195Z,1.83
2023-03-16T14:52:27.721Z,1.65
2023-03-16T14:54:55.532Z,2.22
2023-03-16T14:57:23.330Z,1.73
2023-03-16T14:59:54.550Z,1.70
2023-03-16T15:02:31.805Z,2.20
2023-03-16T15:05:01.218Z,2.17
2023-03-16T15:07:50.457Z,2.25
2023-03-16T15:10:23.506Z,2.00
2023-03-16T15:12:54.066Z,2.03
2023-03-16T15:15:23.913Z,2.30
2023-03-16T15:17:52.993Z,2.08
2023-03-16T15:20:26.084Z,2.45
2023-03-16T15:22:54.058Z,1.92
2023-03-16T15:25:38.333Z,2.13
2023-03-16T15:28:20.869Z,2.20
2023-03-16T15:31:03.532Z,2.80
2023-03-16T15:33:31.490Z,2.97
2023-03-16T15:36:01.865Z,2.90
2023-03-16T15:38:36.223Z,2.85
2023-03-16T15:41:04.189Z,2.10
2023-03-16T15:43:32.024Z,2.75
2023-03-16T15:46:00.088Z,2.65
2023-03-16T15:48:27.500Z,2.80
2023-03-16T15:51:01.945Z,2.70
2023-03-16T15:53:38.083Z,3.38
2023-03-16T15:56:11.056Z,3.75
2023-03-16T15:58:41.856Z,3.33
2023-03-16T16:01:17.279Z,3.53
2023-03-16T16:03:44.868Z,3.38
2023-03-16T16:06:12.644Z,3.30
2023-03-16T16:08:39.956Z,3.00
2023-03-16T16:11:17.997Z,3.67
2023-03-16T16:13:46.008Z,3.17
2023-03-16T16:16:15.457Z,3.28
2023-03-16T16:18:43.209Z,3.08
2023-03-16T16:21:24.533Z,3.00
2023-03-16T16:23:52.815Z,2.88
2023-03-16T16:26:47.770Z,2.72
2023-03-16T16:30:23.697Z,2.38
2023-03-16T16:33:00.664Z,2.85
2023-03-16T16:35:36.751Z,3.17
2023-03-16T16:43:41.765Z,2.97
2023-03-16T17:18:39.235Z,2.53
2023-03-16T17:21:21.431Z,2.50
2023-03-16T17:23:53.454Z,3.03
2023-03-16T17:26:33.439Z,2.45
2023-03-16T17:29:21.717Z,2.90
2023-03-16T17:31:49.883Z,2.78
2023-03-16T17:34:23.189Z,2.75
2023-03-16T17:36:51.595Z,2.75
2023-03-16T17:39:28.308Z,3.13
2023-03-16T17:42:00.714Z,2.95
2023-03-16T17:44:36.070Z,2.63
2023-03-16T17:47:03.974Z,3.20
2023-03-16T17:49:32.643Z,3.53
2023-03-16T17:52:00.630Z,3.70
2023-03-16T17:54:28.284Z,3.42
2023-03-16T17:56:55.701Z,3.22
2023-03-16T17:59:23.789Z,3.17
2023-03-16T18:01:51.185Z,2.90
2023-03-16T18:04:23.882Z,3.42
2023-03-16T18:06:52.317Z,3.53
2023-03-16T18:09:21.034Z,3.63
2023-03-16T18:11:50.838Z,4.07
2023-03-16T18:14:41.243Z,4.05
2023-03-16T18:17:29.524Z,3.65
2023-03-16T18:19:57.747Z,4.00
2023-03-16T18:22:25.406Z,4.13
2023-03-16T18:24:55.078Z,3.28
2023-03-16T18:27:22.759Z,3.05
2023-03-16T18:29:50.115Z,3.05
2023-03-16T18:32:26.121Z,3.38
2023-03-16T18:34:53.848Z,2.97
2023-03-16T18:37:24.192Z,3.15
2023-03-16T18:39:53.016Z,3.35
2023-03-16T18:42:27.585Z,3.10
2023-03-16T18:44:55.011Z,2.97
2023-03-16T18:47:24.591Z,3.45
2023-03-16T18:49:54.074Z,3.80
2023-03-16T18:52:27.968Z,4.40
2023-03-16T18:54:56.053Z,3.72
2023-03-16T18:57:26.486Z,3.65
2023-03-16T18:59:54.510Z,3.42
2023-03-16T19:02:42.719Z,3.65
2023-03-16T19:05:15.462Z,2.83
2023-03-16T19:07:46.146Z,3.63
2023-03-16T19:10:23.953Z,3.20
2023-03-16T19:12:53.833Z,3.15
2023-03-16T19:15:25.229Z,2.90
2023-03-16T19:17:53.335Z,3.03
2023-03-16T19:20:24.823Z,3.00
2023-03-16T19:23:00.460Z,2.92
2023-03-16T19:25:36.030Z,3.03
2023-03-16T19:28:06.294Z,3.05
2023-03-16T19:30:35.762Z,3.08
2023-03-16T19:33:03.285Z,3.13
2023-03-16T19:35:48.512Z,2.67
2023-03-16T19:38:18.121Z,2.90
2023-03-16T19:40:46.848Z,3.10
2023-03-16T19:43:20.495Z,3.10
2023-03-16T19:45:48.909Z,3.65
2023-03-16T19:48:29.508Z,3.17
2023-03-16T19:50:56.976Z,2.60
2023-03-16T19:53:25.491Z,3.05
2023-03-16T19:55:53.729Z,2.45
2023-03-16T19:58:30.287Z,3.05
2023-03-16T20:00:58.879Z,3.15
2023-03-16T20:03:27.393Z,2.95
2023-03-16T20:05:54.739Z,2.50
2023-03-16T20:08:25.701Z,2.58
2023-03-16T20:10:58.607Z,2.90
2023-03-16T20:13:26.431Z,3.00
2023-03-16T20:15:54.303Z,3.00
2023-03-16T20:18:21.625Z,2.35
2023-03-16T20:20:50.318Z,3.13
2023-03-16T20:23:29.935Z,3.05
2023-03-16T20:26:02.169Z,2.90
2023-03-16T20:28:38.058Z,2.90
2023-03-16T20:31:19.692Z,3.10
2023-03-16T20:33:48.584Z,2.88
2023-03-16T20:36:17.065Z,2.95
2023-03-16T20:38:44.824Z,2.75
2023-03-16T20:41:32.666Z,2.85
2023-03-16T20:44:04.902Z,2.90
2023-03-16T20:46:34.079Z,3.17
2023-03-16T20:49:02.351Z,3.60
2023-03-16T20:51:29.790Z,2.83
2023-03-16T20:53:57.098Z,3.47
2023-03-16T20:56:26.702Z,3.38
2023-03-16T20:58:57.940Z,3.22
2023-03-16T21:01:26.443Z,3.15
2023-03-16T21:03:55.634Z,2.92
2023-03-16T21:06:26.117Z,3.00
2023-03-16T21:08:55.436Z,2.65
2023-03-16T21:11:29.936Z,3.28
2023-03-16T21:13:57.405Z,2.80
2023-03-16T21:16:25.226Z,2.60
2023-03-16T21:18:52.655Z,2.58
2023-03-16T21:21:21.221Z,2.47
2023-03-16T21:23:48.601Z,3.00
2023-03-16T21:26:24.836Z,2.95
2023-03-16T21:28:57.804Z,2.63
2023-03-16T21:31:26.183Z,2.88
2023-03-16T21:33:55.414Z,2.65
2023-03-16T21:36:26.533Z,3.38
2023-03-16T21:38:55.089Z,3.33
2023-03-16T21:41:22.987Z,3.47
2023-03-16T21:43:51.650Z,3.53
2023-03-16T21:46:20.616Z,3.47
2023-03-16T21:48:57.065Z,3.47
2023-03-16T21:51:31.247Z,3.58
2023-03-16T21:53:58.921Z,3.20
2023-03-16T21:56:26.647Z,3.28
2023-03-16T21:58:54.553Z,3.33
2023-03-16T22:01:23.084Z,2.88
2023-03-16T22:03:53.338Z,3.42
2023-03-16T22:06:22.755Z,3.80
2023-03-16T22:08:51.317Z,4.15
2023-03-16T22:11:24.697Z,3.70
2023-03-16T22:13:52.358Z,4.35
2023-03-16T22:16:25.890Z,4.28
2023-03-16T22:18:58.938Z,3.70
2023-03-16T22:21:40.921Z,4.38
2023-03-16T22:24:19.119Z,5.82
2023-03-16T22:26:48.688Z,4.68
2023-03-16T22:29:21.882Z,4.18
2023-03-16T22:31:50.010Z,4.22
2023-03-16T22:34:56.593Z,4.15
2023-03-16T22:39:54.261Z,4.20
2023-03-16T22:42:27.379Z,4.18
2023-03-16T22:44:58.039Z,4.20
2023-03-16T22:47:32.516Z,4.07
2023-03-16T22:50:00.472Z,4.28
2023-03-16T22:52:33.285Z,3.85
2023-03-16T22:55:01.689Z,4.60
2023-03-16T22:57:29.840Z,4.28
2023-03-16T22:59:58.226Z,4.50
2023-03-16T23:02:27.854Z,4.45
2023-03-16T23:04:55.979Z,3.88
2023-03-16T23:07:23.406Z,4.45
2023-03-16T23:09:50.741Z,4.18
2023-03-16T23:12:21.408Z,4.75
2023-03-16T23:14:49.358Z,4.15
2023-03-16T23:17:22.206Z,4.40
2023-03-16T23:19:49.962Z,4.40
2023-03-16T23:22:17.663Z,4.50
2023-03-16T23:24:45.244Z,4.57
2023-03-16T23:27:20.138Z,4.63
2023-03-16T23:29:48.046Z,4.15
2023-03-16T23:32:19.314Z,4.75
2023-03-16T23:34:46.987Z,4.10
2023-03-16T23:37:14.278Z,4.43
2023-03-16T23:39:41.610Z,4.75
2023-03-16T23:42:09.567Z,4.72
2023-03-16T23:44:37.144Z,4.05
2023-03-16T23:47:04.584Z,4.50
2023-03-16T23:49:42.207Z,4.22
2023-03-16T23:52:12.523Z,4.32
2023-03-16T23:54:39.807Z,4.22
2023-03-16T23:57:12.385Z,4.35
2023-03-16T23:59:45.803Z,4.32
